Time;durP1;ratioP1;P1;durP2;ratioP2;P2;SDS_P1;SDS_P2;PMS_P1;PMS_P2;Temp;Humidity;BMP_temperature;BMP_pressure;BME280_temperature;BME280_humidity;BME280_pressure;Samples;Min_cycle;Max_cycle;Signal;HPM_P1;HPM_P2
2023/04/25 00:01:49;;;;;;;7.88;5.70;;;;;;;;;;4996162;28;20022;-74
2023/04/25 00:04:15;;;;;;;6.95;5.07;;;;;;;;;;5022384;28;20511;-73
2023/04/25 00:06:41;;;;;;;6.75;4.65;;;;;;;;;;5023096;28;20033;-74
2023/04/25 00:09:08;;;;;;;7.22;4.30;;;;;;;;;;5022379;28;20022;-73
2023/04/25 00:11:35;;;;;;;10.77;5.10;;;;;;;;;;5024163;28;20022;-73
2023/04/25 00:14:02;;;;;;;7.32;4.45;;;;;;;;;;5017672;28;20026;-74
2023/04/25 00:16:33;;;;;;;6.55;4.32;;;;;;;;;;5017299;28;20099;-73
2023/04/25 00:18:59;;;;;;;4.97;4.18;;;;;;;;;;5024469;28;20029;-74
2023/04/25 00:21:25;;;;;;;5.78;3.70;;;;;;;;;;5025861;28;20418;-72
2023/04/25 00:23:55;;;;;;;4.82;3.30;;;;;;;;;;5021151;28;20018;-73
2023/04/25 00:26:21;;;;;;;6.10;3.15;;;;;;;;;;5017636;28;20038;-74
2023/04/25 00:28:47;;;;;;;4.13;3.30;;;;;;;;;;5020748;28;20021;-73
2023/04/25 00:31:13;;;;;;;4.85;3.92;;;;;;;;;;5022963;28;20037;-73
2023/04/25 00:33:40;;;;;;;4.38;3.00;;;;;;;;;;5019930;28;20037;-73
2023/04/25 00:36:06;;;;;;;3.20;2.70;;;;;;;;;;5017246;28;20040;-73
2023/04/25 00:38:32;;;;;;;4.47;3.22;;;;;;;;;;5020460;28;20224;-73
2023/04/25 00:40:58;;;;;;;5.60;3.20;;;;;;;;;;5028131;28;20434;-73
2023/04/25 00:43:26;;;;;;;4.78;3.33;;;;;;;;;;5021325;28;20109;-75
2023/04/25 00:45:53;;;;;;;4.57;2.80;;;;;;;;;;5015562;28;20053;-74
2023/04/25 00:48:19;;;;;;;4.82;2.75;;;;;;;;;;5018000;28;20036;-74
2023/04/25 00:50:49;;;;;;;5.07;2.90;;;;;;;;;;5022210;28;20028;-73
2023/04/25 00:53:15;;;;;;;4.10;2.33;;;;;;;;;;5021706;28;20038;-73
2023/04/25 00:55:41;;;;;;;3.08;2.58;;;;;;;;;;5019606;28;20151;-73
2023/04/25 00:58:07;;;;;;;4.05;2.92;;;;;;;;;;5024534;28;20053;-74
2023/04/25 01:00:34;;;;;;;4.00;2.30;;;;;;;;;;5013598;28;20496;-73
2023/04/25 01:03:02;;;;;;;3.95;2.90;;;;;;;;;;5013156;28;20423;-73
2023/04/25 01:05:28;;;;;;;2.78;2.08;;;;;;;;;;5014935;28;20843;-73
2023/04/25 01:07:54;;;;;;;5.78;2.20;;;;;;;;;;5019316;28;20029;-74
2023/04/25 01:10:20;;;;;;;6.78;2.33;;;;;;;;;;5012063;28;20026;-74
2023/04/25 01:12:47;;;;;;;5.60;2.53;;;;;;;;;;5017717;28;20124;-73
2023/04/25 01:15:13;;;;;;;3.80;2.60;;;;;;;;;;5017941;28;20108;-73
2023/04/25 01:17:41;;;;;;;4.40;2.60;;;;;;;;;;5024736;28;20109;-73
2023/04/25 01:20:09;;;;;;;4.88;2.28;;;;;;;;;;5018715;28;20068;-73
2023/04/25 01:22:35;;;;;;;2.40;2.20;;;;;;;;;;5021924;28;20049;-73
2023/04/25 01:25:01;;;;;;;6.95;3.10;;;;;;;;;;5024639;28;20060;-74
2023/04/25 01:27:28;;;;;;;3.42;2.67;;;;;;;;;;5023114;28;20060;-74
2023/04/25 01:29:55;;;;;;;3.90;2.72;;;;;;;;;;5015024;28;20034;-74
2023/04/25 01:32:22;;;;;;;3.92;2.35;;;;;;;;;;5020206;28;20673;-73
2023/04/25 01:34:48;;;;;;;4.20;2.80;;;;;;;;;;5022215;28;20083;-73
2023/04/25 01:37:14;;;;;;;4.97;2.58;;;;;;;;;;5016792;28;20501;-74
2023/04/25 01:39:41;;;;;;;4.72;2.33;;;;;;;;;;5016563;28;20026;-74
2023/04/25 01:42:07;;;;;;;3.42;2.45;;;;;;;;;;5021867;28;20030;-73
2023/04/25 01:44:33;;;;;;;4.80;2.60;;;;;;;;;;5021097;28;20025;-74
2023/04/25 01:47:00;;;;;;;3.63;2.63;;;;;;;;;;5020353;28;20033;-74
2023/04/25 01:49:26;;;;;;;2.78;2.42;;;;;;;;;;5020242;28;20021;-74
2023/04/25 01:51:53;;;;;;;4.63;2.42;;;;;;;;;;5021512;28;20068;-74
2023/04/25 01:54:19;;;;;;;3.45;2.70;;;;;;;;;;5015512;28;20033;-73
2023/04/25 01:56:50;;;;;;;5.10;2.80;;;;;;;;;;5020786;28;20041;-73
2023/04/25 01:59:16;;;;;;;4.32;2.97;;;;;;;;;;5015628;28;20038;-73
2023/04/25 02:01:42;;;;;;;4.13;2.90;;;;;;;;;;5015148;28;20574;-73
2023/04/25 02:04:08;;;;;;;3.22;2.85;;;;;;;;;;5021336;28;20034;-73
2023/04/25 02:06:34;;;;;;;4.22;2.92;;;;;;;;;;5022761;28;20069;-73
2023/04/25 02:09:01;;;;;;;4.30;2.80;;;;;;;;;;5024235;28;20030;-74
2023/04/25 02:11:27;;;;;;;4.88;3.40;;;;;;;;;;5017930;28;20041;-74
2023/04/25 02:13:53;;;;;;;8.98;3.63;;;;;;;;;;5016232;28;20127;-73
2023/04/25 02:16:19;;;;;;;4.53;3.33;;;;;;;;;;5019520;28;20033;-73
2023/04/25 02:18:45;;;;;;;5.05;2.88;;;;;;;;;;5022786;28;20032;-73
2023/04/25 02:21:11;;;;;;;4.60;3.15;;;;;;;;;;5006985;28;20034;-73
2023/04/25 02:23:38;;;;;;;7.13;3.20;;;;;;;;;;5031046;28;20079;-73
2023/04/25 02:26:04;;;;;;;4.40;3.20;;;;;;;;;;5021474;28;20028;-74
2023/04/25 02:28:30;;;;;;;7.30;2.90;;;;;;;;;;5013993;28;20026;-73
2023/04/25 02:30:56;;;;;;;4.43;3.28;;;;;;;;;;5001168;28;20091;-74
2023/04/25 02:33:23;;;;;;;7.05;3.40;;;;;;;;;;5020526;28;20033;-73
2023/04/25 02:35:49;;;;;;;7.07;3.45;;;;;;;;;;5018144;28;20033;-73
2023/04/25 02:38:15;;;;;;;7.18;3.25;;;;;;;;;;5018367;28;20033;-73
2023/04/25 02:40:41;;;;;;;4.43;3.47;;;;;;;;;;5012623;28;20054;-73
2023/04/25 02:43:07;;;;;;;4.40;3.22;;;;;;;;;;5020602;28;20101;-73
2023/04/25 02:45:33;;;;;;;4.22;3.22;;;;;;;;;;5016121;28;20025;-73
2023/04/25 02:48:00;;;;;;;5.57;3.22;;;;;;;;;;5020145;28;20051;-74
2023/04/25 02:50:26;;;;;;;5.05;3.30;;;;;;;;;;5018221;28;20093;-76
2023/04/25 02:52:52;;;;;;;7.55;4.68;;;;;;;;;;5022376;28;20050;-73
2023/04/25 02:55:19;;;;;;;3.65;2.92;;;;;;;;;;5022508;28;20423;-73
2023/04/25 02:57:48;;;;;;;5.88;3.55;;;;;;;;;;5011412;28;20069;-74
2023/04/25 03:00:15;;;;;;;6.35;3.75;;;;;;;;;;5014555;28;20030;-73
2023/04/25 03:02:41;;;;;;;6.00;3.60;;;;;;;;;;5021569;28;20045;-74
2023/04/25 03:05:07;;;;;;;5.65;3.67;;;;;;;;;;5016534;28;20567;-73
2023/04/25 03:07:33;;;;;;;5.13;3.58;;;;;;;;;;5022215;28;20035;-74
2023/04/25 03:09:59;;;;;;;5.00;3.10;;;;;;;;;;5022048;28;20126;-73
2023/04/25 03:12:25;;;;;;;4.55;3.72;;;;;;;;;;5018212;28;20026;-74
2023/04/25 03:14:51;;;;;;;3.72;3.40;;;;;;;;;;5024748;28;20261;-73
2023/04/25 03:17:17;;;;;;;4.95;3.13;;;;;;;;;;5024467;28;20071;-74
2023/04/25 03:19:43;;;;;;;5.28;3.63;;;;;;;;;;5028445;28;20053;-73
2023/04/25 03:22:10;;;;;;;7.38;3.75;;;;;;;;;;5019518;28;20033;-73
2023/04/25 03:24:37;;;;;;;4.65;3.35;;;;;;;;;;5020256;28;20127;-73
2023/04/25 03:27:03;;;;;;;8.70;4.00;;;;;;;;;;5026411;28;20510;-73
2023/04/25 03:29:29;;;;;;;4.25;3.45;;;;;;;;;;5021281;28;20034;-74
2023/04/25 03:31:55;;;;;;;4.10;3.30;;;;;;;;;;5023271;28;20411;-73
2023/04/25 03:34:21;;;;;;;4.20;3.40;;;;;;;;;;5016303;28;20022;-74
2023/04/25 03:36:47;;;;;;;4.68;3.33;;;;;;;;;;5028722;28;20022;-74
2023/04/25 03:39:14;;;;;;;5.65;3.20;;;;;;;;;;5029469;28;20036;-73
2023/04/25 03:41:40;;;;;;;7.45;4.03;;;;;;;;;;5018309;28;20040;-74
2023/04/25 03:44:06;;;;;;;8.75;4.32;;;;;;;;;;5022903;28;20022;-73
2023/04/25 03:46:32;;;;;;;4.97;3.63;;;;;;;;;;5022046;28;20017;-74
2023/04/25 03:48:59;;;;;;;3.38;3.08;;;;;;;;;;5030113;28;20025;-76
2023/04/25 03:51:25;;;;;;;5.60;3.50;;;;;;;;;;5037273;28;20025;-75
2023/04/25 03:53:52;;;;;;;4.35;3.33;;;;;;;;;;5022596;28;20139;-74
2023/04/25 03:56:18;;;;;;;6.00;3.45;;;;;;;;;;5017724;28;20503;-74
2023/04/25 03:58:45;;;;;;;8.00;4.03;;;;;;;;;;5022572;28;20040;-73
2023/04/25 04:01:11;;;;;;;5.20;3.78;;;;;;;;;;5025599;28;20573;-73
2023/04/25 04:03:37;;;;;;;5.70;3.58;;;;;;;;;;5027975;28;20074;-73
2023/04/25 04:06:06;;;;;;;3.92;3.53;;;;;;;;;;5028224;28;20017;-72
2023/04/25 04:08:33;;;;;;;6.75;3.60;;;;;;;;;;5012415;28;20091;-74
2023/04/25 04:10:59;;;;;;;8.57;3.30;;;;;;;;;;5014043;28;20046;-72
2023/04/25 04:13:29;;;;;;;5.65;3.22;;;;;;;;;;5022535;28;20041;-73
2023/04/25 04:15:55;;;;;;;4.50;3.35;;;;;;;;;;5030333;28;20026;-73
2023/04/25 04:18:21;;;;;;;6.78;4.00;;;;;;;;;;5021760;28;20033;-73
2023/04/25 04:20:48;;;;;;;7.10;3.70;;;;;;;;;;5028347;28;20494;-73
2023/04/25 04:23:14;;;;;;;6.00;3.80;;;;;;;;;;5029898;28;20029;-73
2023/04/25 04:25:41;;;;;;;5.13;3.60;;;;;;;;;;5027453;28;20021;-74
2023/04/25 04:28:07;;;;;;;5.55;3.30;;;;;;;;;;5027086;28;20032;-73
2023/04/25 04:30:36;;;;;;;4.28;3.20;;;;;;;;;;5016976;28;20030;-73
2023/04/25 04:33:03;;;;;;;4.22;3.28;;;;;;;;;;5021123;28;20064;-73
2023/04/25 04:35:29;;;;;;;5.53;3.78;;;;;;;;;;5024643;28;20022;-73
2023/04/25 04:37:56;;;;;;;4.82;3.40;;;;;;;;;;5023558;28;20029;-73
2023/04/25 04:40:22;;;;;;;5.72;3.50;;;;;;;;;;5019521;28;20210;-73
2023/04/25 04:42:49;;;;;;;8.02;3.95;;;;;;;;;;5023585;28;20024;-74
2023/04/25 04:45:15;;;;;;;4.35;3.40;;;;;;;;;;5020834;28;20498;-73
2023/04/25 04:47:42;;;;;;;5.55;3.80;;;;;;;;;;5017304;28;20133;-73
2023/04/25 04:50:09;;;;;;;6.93;3.40;;;;;;;;;;5028087;28;20029;-73
2023/04/25 04:52:36;;;;;;;5.07;3.53;;;;;;;;;;5027901;28;20099;-74
2023/04/25 04:55:03;;;;;;;5.85;4.55;;;;;;;;;;5008239;28;20022;-73
2023/04/25 04:57:29;;;;;;;5.78;3.55;;;;;;;;;;5011086;28;20052;-74
2023/04/25 04:59:55;;;;;;;4.30;3.40;;;;;;;;;;5011788;28;20375;-73
2023/04/25 05:02:21;;;;;;;4.70;3.47;;;;;;;;;;5023220;28;20018;-73
2023/04/25 05:04:47;;;;;;;6.28;3.45;;;;;;;;;;5016644;28;20025;-73
2023/04/25 05:07:14;;;;;;;5.07;3.42;;;;;;;;;;5031504;28;20022;-73
2023/04/25 05:09:40;;;;;;;5.88;4.00;;;;;;;;;;5021660;28;20025;-72
2023/04/25 05:12:06;;;;;;;10.40;4.78;;;;;;;;;;5022586;28;20064;-72
2023/04/25 05:14:33;;;;;;;5.22;3.28;;;;;;;;;;5021985;28;20079;-72
2023/04/25 05:16:59;;;;;;;7.97;3.80;;;;;;;;;;5014344;28;20404;-73
2023/04/25 05:19:25;;;;;;;5.68;3.60;;;;;;;;;;5022897;28;20052;-73
2023/04/25 05:21:51;;;;;;;6.88;3.83;;;;;;;;;;5020975;28;20018;-73
2023/04/25 05:24:17;;;;;;;5.22;3.55;;;;;;;;;;5019556;28;20495;-72
2023/04/25 05:26:43;;;;;;;6.20;3.95;;;;;;;;;;5018376;28;20076;-73
2023/04/25 05:29:10;;;;;;;5.50;3.40;;;;;;;;;;5020922;28;20030;-73
2023/04/25 05:31:36;;;;;;;8.40;4.03;;;;;;;;;;5005700;28;20029;-73
2023/04/25 05:34:03;;;;;;;7.13;4.32;;;;;;;;;;5025477;28;20100;-73
2023/04/25 05:36:30;;;;;;;7.28;4.05;;;;;;;;;;5020943;28;20448;-73
2023/04/25 05:38:56;;;;;;;8.27;3.75;;;;;;;;;;5013705;28;20038;-73
2023/04/25 05:41:22;;;;;;;6.55;3.95;;;;;;;;;;5018728;28;20025;-73
2023/04/25 05:43:49;;;;;;;6.15;3.72;;;;;;;;;;5019952;28;20033;-73
2023/04/25 05:46:18;;;;;;;6.68;3.63;;;;;;;;;;5015178;28;20029;-73
2023/04/25 05:48:44;;;;;;;4.88;3.80;;;;;;;;;;5020274;28;20090;-73
2023/04/25 05:51:11;;;;;;;10.48;5.20;;;;;;;;;;5022370;28;20502;-72
2023/04/25 05:53:37;;;;;;;10.98;5.43;;;;;;;;;;5020071;28;20030;-73
2023/04/25 05:56:03;;;;;;;7.38;4.68;;;;;;;;;;5020647;28;20053;-73
2023/04/25 05:58:29;;;;;;;6.32;4.03;;;;;;;;;;5028195;28;20041;-73
2023/04/25 06:00:55;;;;;;;7.78;4.18;;;;;;;;;;5035840;28;20028;-73
2023/04/25 06:03:22;;;;;;;6.80;4.82;;;;;;;;;;5021105;28;20487;-73
2023/04/25 06:05:48;;;;;;;7.72;4.25;;;;;;;;;;5005547;28;20467;-73
2023/04/25 06:08:15;;;;;;;7.63;4.85;;;;;;;;;;5026976;28;20033;-75
2023/04/25 06:10:41;;;;;;;5.53;4.30;;;;;;;;;;5026845;28;20052;-74
2023/04/25 06:13:07;;;;;;;4.45;3.85;;;;;;;;;;5011614;28;20026;-73
2023/04/25 06:15:33;;;;;;;6.70;3.85;;;;;;;;;;5024884;28;20107;-73
2023/04/25 06:17:59;;;;;;;8.05;4.03;;;;;;;;;;5012290;28;20074;-73
2023/04/25 06:20:25;;;;;;;7.22;3.50;;;;;;;;;;5016807;28;20561;-74
2023/04/25 06:22:52;;;;;;;5.80;4.10;;;;;;;;;;5018230;28;20025;-73
2023/04/25 06:25:18;;;;;;;4.63;3.42;;;;;;;;;;5022169;28;20024;-74
2023/04/25 06:27:44;;;;;;;6.20;3.97;;;;;;;;;;5046912;28;20363;-73
2023/04/25 06:30:11;;;;;;;6.30;3.80;;;;;;;;;;5022496;28;20029;-74
2023/04/25 06:32:38;;;;;;;6.30;4.30;;;;;;;;;;5026218;28;20548;-74
2023/04/25 06:35:04;;;;;;;9.43;5.03;;;;;;;;;;5031044;28;20037;-74
2023/04/25 06:37:31;;;;;;;7.90;4.18;;;;;;;;;;5018805;28;20049;-74
2023/04/25 06:39:57;;;;;;;7.22;5.53;;;;;;;;;;5020852;28;20033;-73
2023/04/25 06:42:23;;;;;;;6.25;4.13;;;;;;;;;;5022354;28;20021;-74
2023/04/25 06:44:49;;;;;;;5.35;3.40;;;;;;;;;;5021897;28;20065;-73
2023/04/25 06:47:15;;;;;;;4.55;3.40;;;;;;;;;;5018490;28;21003;-73
2023/04/25 06:49:41;;;;;;;7.00;3.70;;;;;;;;;;5017591;28;20026;-75
2023/04/25 06:52:08;;;;;;;9.63;3.78;;;;;;;;;;5010674;28;20029;-73
2023/04/25 06:54:34;;;;;;;5.65;3.60;;;;;;;;;;5020351;28;20600;-74
2023/04/25 06:57:01;;;;;;;5.40;3.25;;;;;;;;;;5024162;28;20499;-74
2023/04/25 06:59:27;;;;;;;5.82;3.70;;;;;;;;;;5021297;28;20535;-73
2023/04/25 07:01:53;;;;;;;4.95;3.60;;;;;;;;;;5027087;28;20100;-74
2023/04/25 07:04:19;;;;;;;6.47;4.72;;;;;;;;;;5026947;28;20021;-73
2023/04/25 07:06:47;;;;;;;6.40;4.10;;;;;;;;;;5019853;28;20029;-74
2023/04/25 07:09:13;;;;;;;7.90;4.20;;;;;;;;;;5017954;28;20029;-74
2023/04/25 07:11:39;;;;;;;10.88;4.03;;;;;;;;;;5026746;28;20061;-74
2023/04/25 07:14:05;;;;;;;5.03;3.72;;;;;;;;;;5022539;28;20034;-74
2023/04/25 07:16:31;;;;;;;5.75;3.63;;;;;;;;;;5022143;28;20063;-74
2023/04/25 07:18:59;;;;;;;6.40;3.80;;;;;;;;;;5018500;28;20434;-75
2023/04/25 07:21:25;;;;;;;7.53;3.85;;;;;;;;;;5017129;28;20052;-74
2023/04/25 07:23:51;;;;;;;5.90;3.67;;;;;;;;;;5025389;28;20063;-73
2023/04/25 07:26:18;;;;;;;9.90;4.00;;;;;;;;;;5022890;28;20064;-75
2023/04/25 07:28:44;;;;;;;5.93;3.28;;;;;;;;;;5023116;28;20030;-74
2023/04/25 07:31:10;;;;;;;8.63;4.60;;;;;;;;;;5024236;28;20025;-74
2023/04/25 07:33:36;;;;;;;5.15;3.65;;;;;;;;;;5025558;28;20116;-74
2023/04/25 07:36:02;;;;;;;5.65;4.07;;;;;;;;;;5024442;28;20052;-73
2023/04/25 07:38:28;;;;;;;4.63;3.20;;;;;;;;;;5020976;28;20481;-72
2023/04/25 07:40:54;;;;;;;9.43;3.40;;;;;;;;;;5022574;28;20034;-73
2023/04/25 07:43:20;;;;;;;8.23;3.40;;;;;;;;;;5021323;28;20025;-74
2023/04/25 07:45:47;;;;;;;6.85;4.35;;;;;;;;;;5018798;28;20486;-73
2023/04/25 07:48:18;;;;;;;4.10;3.20;;;;;;;;;;5020460;28;20022;-73
2023/04/25 07:50:45;;;;;;;5.85;3.03;;;;;;;;;;5020511;28;20565;-73
2023/04/25 07:53:11;;;;;;;7.78;3.40;;;;;;;;;;5025090;28;20478;-73
2023/04/25 07:55:39;;;;;;;4.65;3.08;;;;;;;;;;5021745;28;20025;-73
2023/04/25 07:58:06;;;;;;;8.02;4.28;;;;;;;;;;5027667;28;20064;-74
2023/04/25 08:00:32;;;;;;;4.38;3.15;;;;;;;;;;5018032;28;20018;-74
2023/04/25 08:02:58;;;;;;;5.65;3.17;;;;;;;;;;5020340;28;20052;-73
2023/04/25 08:05:24;;;;;;;4.55;3.10;;;;;;;;;;5019282;28;20045;-72
2023/04/25 08:07:50;;;;;;;8.90;3.28;;;;;;;;;;5023401;28;20283;-73
2023/04/25 08:10:17;;;;;;;5.35;3.10;;;;;;;;;;5022437;28;20033;-73
2023/04/25 08:12:44;;;;;;;4.47;2.90;;;;;;;;;;5020757;28;20375;-74
2023/04/25 08:15:10;;;;;;;8.18;2.97;;;;;;;;;;5025528;28;20103;-75
2023/04/25 08:17:36;;;;;;;6.00;3.40;;;;;;;;;;5020159;28;20034;-73
2023/04/25 08:20:05;;;;;;;8.70;3.10;;;;;;;;;;5025891;28;20036;-75
2023/04/25 08:22:32;;;;;;;6.00;3.30;;;;;;;;;;5026937;28;20378;-73
2023/04/25 08:24:58;;;;;;;8.95;3.28;;;;;;;;;;5026736;28;20045;-74
2023/04/25 08:27:24;;;;;;;4.70;3.60;;;;;;;;;;5023573;28;20030;-72
2023/04/25 08:29:50;;;;;;;6.63;3.78;;;;;;;;;;5025823;28;20414;-73
2023/04/25 08:32:17;;;;;;;10.63;3.47;;;;;;;;;;5005336;28;20120;-74
2023/04/25 08:34:43;;;;;;;5.00;3.67;;;;;;;;;;5028305;28;20027;-74
2023/04/25 08:37:10;;;;;;;7.28;3.08;;;;;;;;;;5027552;28;20025;-73
2023/04/25 08:39:37;;;;;;;6.85;3.42;;;;;;;;;;5027861;28;20109;-73
2023/04/25 08:42:10;;;;;;;6.75;3.45;;;;;;;;;;5020519;28;20426;-73
2023/04/25 08:44:36;;;;;;;5.22;3.42;;;;;;;;;;5006967;28;20052;-73
2023/04/25 08:47:06;;;;;;;6.20;3.22;;;;;;;;;;5017345;28;20382;-74
2023/04/25 08:49:33;;;;;;;5.20;3.58;;;;;;;;;;5020978;28;20503;-74
2023/04/25 08:52:00;;;;;;;6.68;3.97;;;;;;;;;;5024315;28;20521;-74
2023/04/25 08:54:28;;;;;;;6.72;4.18;;;;;;;;;;5024061;28;20022;-72
2023/04/25 08:56:55;;;;;;;7.20;3.88;;;;;;;;;;5028296;28;20160;-73
2023/04/25 08:59:21;;;;;;;5.78;4.13;;;;;;;;;;5025943;28;20037;-73
2023/04/25 09:01:48;;;;;;;5.68;3.00;;;;;;;;;;5023983;28;20431;-73
2023/04/25 09:04:14;;;;;;;4.40;3.00;;;;;;;;;;5025715;28;20502;-73
2023/04/25 09:06:40;;;;;;;4.65;2.97;;;;;;;;;;5023631;28;20383;-73
2023/04/25 09:09:07;;;;;;;4.43;2.88;;;;;;;;;;5029368;28;20026;-73
2023/04/25 09:11:35;;;;;;;6.88;2.90;;;;;;;;;;5025829;28;20071;-72
2023/04/25 09:14:12;;;;;;;6.85;2.80;;;;;;;;;;5015127;28;20097;-73
2023/04/25 09:16:57;;;;;;;3.47;2.55;;;;;;;;;;5030644;28;20041;-71
2023/04/25 09:19:27;;;;;;;4.05;2.97;;;;;;;;;;5019431;28;20279;-72
2023/04/25 09:21:57;;;;;;;6.53;2.90;;;;;;;;;;5017254;28;20029;-72
2023/04/25 09:24:34;;;;;;;4.38;3.05;;;;;;;;;;5015804;28;20029;-72
2023/04/25 09:27:01;;;;;;;6.20;2.97;;;;;;;;;;5019664;28;20029;-74
2023/04/25 09:29:31;;;;;;;3.35;2.85;;;;;;;;;;5019847;28;20122;-73
2023/04/25 09:32:26;;;;;;;5.15;3.72;;;;;;;;;;5020327;28;20591;-73
2023/04/25 09:34:54;;;;;;;6.43;3.15;;;;;;;;;;5009436;28;20117;-72
2023/04/25 09:37:24;;;;;;;6.50;3.38;;;;;;;;;;5018824;28;20028;-71
2023/04/25 09:39:51;;;;;;;6.95;3.53;;;;;;;;;;5004858;28;20084;-73
2023/04/25 09:42:17;;;;;;;8.07;3.40;;;;;;;;;;5021795;28;20049;-72
2023/04/25 09:44:47;;;;;;;5.90;3.58;;;;;;;;;;5031232;28;20040;-73
2023/04/25 09:47:16;;;;;;;4.70;2.95;;;;;;;;;;5031157;28;20084;-73
2023/04/25 09:49:43;;;;;;;5.50;3.33;;;;;;;;;;5027268;28;20080;-73
2023/04/25 09:52:09;;;;;;;3.05;2.60;;;;;;;;;;5019916;28;20493;-74
2023/04/25 09:54:35;;;;;;;3.63;2.90;;;;;;;;;;5021369;28;20498;-73
2023/04/25 09:57:07;;;;;;;3.58;2.92;;;;;;;;;;5016954;28;20045;-73
2023/04/25 09:59:34;;;;;;;4.43;2.80;;;;;;;;;;5018545;28;20018;-74
2023/04/25 10:02:00;;;;;;;7.38;3.80;;;;;;;;;;5018950;28;20087;-74
2023/04/25 10:04:28;;;;;;;4.43;2.33;;;;;;;;;;5012954;28;20095;-74
2023/04/25 10:06:57;;;;;;;4.40;3.13;;;;;;;;;;5012861;28;20036;-74
2023/04/25 10:09:25;;;;;;;4.22;2.97;;;;;;;;;;5017086;28;20442;-73
2023/04/25 10:11:51;;;;;;;3.63;2.60;;;;;;;;;;5018234;28;20057;-73
2023/04/25 10:14:18;;;;;;;2.60;2.25;;;;;;;;;;5018725;28;20022;-78
2023/04/25 10:16:45;;;;;;;5.53;2.83;;;;;;;;;;5029717;28;20037;-78
2023/04/25 10:19:13;;;;;;;2.58;2.20;;;;;;;;;;5032746;28;20044;-72
2023/04/25 10:21:46;;;;;;;3.83;2.80;;;;;;;;;;5018442;28;20103;-72
2023/04/25 10:24:13;;;;;;;5.38;3.10;;;;;;;;;;5022247;28;20028;-72
2023/04/25 10:26:40;;;;;;;4.65;3.13;;;;;;;;;;5008593;28;20033;-73
2023/04/25 10:29:06;;;;;;;4.68;2.90;;;;;;;;;;5027682;28;20037;-73
2023/04/25 10:31:32;;;;;;;7.80;4.50;;;;;;;;;;5019077;28;20391;-73
2023/04/25 10:34:00;;;;;;;4.60;2.97;;;;;;;;;;5026483;28;20116;-73
2023/04/25 10:36:31;;;;;;;5.55;2.80;;;;;;;;;;5020446;28;20170;-73
2023/04/25 10:39:06;;;;;;;6.90;3.75;;;;;;;;;;5013691;28;20033;-73
2023/04/25 10:41:32;;;;;;;4.85;2.58;;;;;;;;;;5017043;28;20445;-73
2023/04/25 10:44:01;;;;;;;3.85;2.80;;;;;;;;;;5017230;28;20119;-76
2023/04/25 10:46:30;;;;;;;7.32;2.47;;;;;;;;;;5016535;28;20100;-74
2023/04/25 10:48:57;;;;;;;3.03;2.50;;;;;;;;;;5016996;28;20136;-73
2023/04/25 10:51:24;;;;;;;4.90;2.75;;;;;;;;;;5015432;28;20725;-74
2023/04/25 10:54:10;;;;;;;2.85;2.17;;;;;;;;;;5023068;28;20418;-73
2023/04/25 10:56:56;;;;;;;4.47;2.60;;;;;;;;;;5015578;28;20041;-72
2023/04/25 10:59:25;;;;;;;7.40;4.35;;;;;;;;;;5013001;28;20449;-72
2023/04/25 11:01:54;;;;;;;4.28;2.55;;;;;;;;;;5019999;28;20033;-71
2023/04/25 11:04:21;;;;;;;5.45;3.17;;;;;;;;;;5018308;28;20029;-73
2023/04/25 11:07:05;;;;;;;5.80;2.80;;;;;;;;;;5023873;28;20033;-73
2023/04/25 11:09:33;;;;;;;3.83;2.50;;;;;;;;;;5020628;28;20025;-73
2023/04/25 11:12:00;;;;;;;4.22;2.30;;;;;;;;;;5019043;28;20116;-72
2023/04/25 11:14:27;;;;;;;4.18;3.08;;;;;;;;;;5019307;28;20978;-72
2023/04/25 11:16:59;;;;;;;4.95;2.70;;;;;;;;;;5019040;28;20029;-71
2023/04/25 11:19:26;;;;;;;4.00;2.65;;;;;;;;;;5019474;28;20034;-71
2023/04/25 11:21:56;;;;;;;3.40;2.53;;;;;;;;;;5018774;28;20093;-73
2023/04/25 11:24:26;;;;;;;3.80;2.55;;;;;;;;;;5017711;28;20499;-71
2023/04/25 11:26:52;;;;;;;5.35;2.88;;;;;;;;;;5016509;28;20117;-71
2023/04/25 11:29:18;;;;;;;4.70;2.70;;;;;;;;;;5013521;28;20391;-72
2023/04/25 11:31:47;;;;;;;2.53;2.08;;;;;;;;;;5018355;28;20030;-72
2023/04/25 11:34:17;;;;;;;2.78;2.30;;;;;;;;;;5016921;28;20025;-72
2023/04/25 11:36:45;;;;;;;2.58;2.30;;;;;;;;;;5016810;28;20030;-74
2023/04/25 11:39:11;;;;;;;3.67;2.60;;;;;;;;;;5024090;28;20029;-73
2023/04/25 11:41:41;;;;;;;7.32;2.55;;;;;;;;;;5021561;28;20487;-73
2023/04/25 11:44:07;;;;;;;4.95;2.55;;;;;;;;;;5020301;28;20554;-73
2023/04/25 11:46:36;;;;;;;4.28;2.53;;;;;;;;;;5026001;28;20053;-74
2023/04/25 11:49:04;;;;;;;4.50;3.25;;;;;;;;;;5031245;28;20033;-74
2023/04/25 11:51:31;;;;;;;4.85;2.83;;;;;;;;;;5025652;28;20068;-75
2023/04/25 11:53:57;;;;;;;5.32;3.03;;;;;;;;;;5028283;28;20033;-74
2023/04/25 11:56:23;;;;;;;3.50;2.40;;;;;;;;;;5024020;28;20383;-73
2023/04/25 11:58:56;;;;;;;3.42;2.28;;;;;;;;;;5018396;28;20025;-73
2023/04/25 12:01:32;;;;;;;4.43;2.83;;;;;;;;;;5016533;28;20691;-74
2023/04/25 12:03:58;;;;;;;4.07;2.50;;;;;;;;;;5026261;28;20064;-73
2023/04/25 12:06:34;;;;;;;4.03;2.72;;;;;;;;;;5022379;28;20493;-71
2023/04/25 12:09:03;;;;;;;3.72;2.85;;;;;;;;;;5023647;28;20499;-72
2023/04/25 12:11:32;;;;;;;4.28;2.90;;;;;;;;;;5024035;28;20030;-74
2023/04/25 12:14:07;;;;;;;5.43;3.03;;;;;;;;;;5006020;28;20091;-71
2023/04/25 12:16:43;;;;;;;3.28;2.40;;;;;;;;;;5029450;28;20030;-74
2023/04/25 12:19:10;;;;;;;5.07;2.70;;;;;;;;;;5031934;28;20047;-74
2023/04/25 12:21:36;;;;;;;3.58;2.60;;;;;;;;;;5022377;28;20124;-74
2023/04/25 12:24:10;;;;;;;4.43;2.42;;;;;;;;;;5033657;28;20022;-72
2023/04/25 12:26:52;;;;;;;5.53;3.60;;;;;;;;;;5028429;28;20033;-72
2023/04/25 12:29:19;;;;;;;13.85;6.88;;;;;;;;;;5028480;28;20009;-76
2023/04/25 12:31:45;;;;;;;10.85;4.53;;;;;;;;;;5022606;28;20112;-73
2023/04/25 12:34:11;;;;;;;8.32;3.28;;;;;;;;;;5036721;28;20034;-74
2023/04/25 12:36:38;;;;;;;5.43;2.95;;;;;;;;;;5019845;28;20056;-73
2023/04/25 12:39:04;;;;;;;14.40;5.45;;;;;;;;;;5013798;28;20037;-73
2023/04/25 12:41:31;;;;;;;12.27;6.15;;;;;;;;;;5033253;28;20118;-74
2023/04/25 12:43:57;;;;;;;6.82;3.50;;;;;;;;;;5023622;28;20119;-72
2023/04/25 12:46:23;;;;;;;4.50;2.50;;;;;;;;;;5024135;28;20017;-76
2023/04/25 12:48:49;;;;;;;7.40;3.72;;;;;;;;;;5022588;28;20072;-74
2023/04/25 12:51:15;;;;;;;6.22;2.55;;;;;;;;;;5024204;28;20148;-73
2023/04/25 12:53:42;;;;;;;5.18;3.55;;;;;;;;;;5025097;28;20034;-71
2023/04/25 12:56:08;;;;;;;6.68;2.70;;;;;;;;;;5025538;28;20052;-71
2023/04/25 12:58:35;;;;;;;3.45;2.80;;;;;;;;;;5019209;28;20416;-73
2023/04/25 13:01:02;;;;;;;3.97;2.70;;;;;;;;;;5008391;28;20058;-73
2023/04/25 13:03:28;;;;;;;3.80;2.90;;;;;;;;;;5029314;28;20047;-74
2023/04/25 13:05:54;;;;;;;4.50;2.63;;;;;;;;;;5020523;28;20068;-74
2023/04/25 13:08:20;;;;;;;4.90;2.80;;;;;;;;;;5024173;28;20498;-73
2023/04/25 13:10:48;;;;;;;5.07;2.67;;;;;;;;;;5027498;28;20029;-74
2023/04/25 13:13:14;;;;;;;4.18;2.33;;;;;;;;;;5025412;28;20026;-74
2023/04/25 13:15:40;;;;;;;5.10;3.38;;;;;;;;;;5020780;28;20028;-73
2023/04/25 13:18:06;;;;;;;6.70;2.80;;;;;;;;;;5024594;28;20024;-75
2023/04/25 13:20:33;;;;;;;5.22;2.60;;;;;;;;;;5021932;28;20025;-74
2023/04/25 13:22:59;;;;;;;4.57;2.53;;;;;;;;;;5026184;28;20045;-74
2023/04/25 13:25:25;;;;;;;3.42;2.50;;;;;;;;;;5008013;28;20054;-74
2023/04/25 13:27:52;;;;;;;6.68;2.78;;;;;;;;;;5032880;28;20021;-74
2023/04/25 13:30:18;;;;;;;4.30;2.60;;;;;;;;;;5017028;28;20064;-74
2023/04/25 13:32:44;;;;;;;7.32;2.70;;;;;;;;;;5017914;28;20036;-73
2023/04/25 13:35:11;;;;;;;5.25;2.47;;;;;;;;;;5018431;28;20091;-73
2023/04/25 13:37:38;;;;;;;3.72;2.97;;;;;;;;;;5019492;28;20033;-73
2023/04/25 13:40:06;;;;;;;5.97;2.70;;;;;;;;;;5012667;28;20049;-71
2023/04/25 13:42:32;;;;;;;6.25;3.10;;;;;;;;;;5015733;28;20021;-73
2023/04/25 13:44:58;;;;;;;5.47;2.65;;;;;;;;;;5029119;28;20021;-73
2023/04/25 13:47:24;;;;;;;4.53;3.58;;;;;;;;;;5013741;28;20227;-74
2023/04/25 13:49:50;;;;;;;7.68;4.70;;;;;;;;;;5016315;28;20032;-74
2023/04/25 13:52:17;;;;;;;12.95;5.93;;;;;;;;;;5022370;28;20032;-73
2023/04/25 13:54:43;;;;;;;12.32;7.15;;;;;;;;;;5013737;28;20045;-73
2023/04/25 13:57:10;;;;;;;7.20;4.32;;;;;;;;;;5017478;28;20641;-74
2023/04/25 13:59:37;;;;;;;6.30;3.80;;;;;;;;;;5018131;28;20051;-73
2023/04/25 14:02:03;;;;;;;5.25;3.50;;;;;;;;;;5021750;28;20033;-74
2023/04/25 14:04:30;;;;;;;6.57;3.63;;;;;;;;;;5019539;28;20029;-75
2023/04/25 14:06:56;;;;;;;6.47;3.17;;;;;;;;;;5018375;28;20042;-74
2023/04/25 14:09:25;;;;;;;7.13;3.60;;;;;;;;;;5020833;28;20031;-74
2023/04/25 14:11:54;;;;;;;8.02;3.67;;;;;;;;;;5027579;28;20033;-76
2023/04/25 14:14:20;;;;;;;9.55;3.80;;;;;;;;;;5021247;28;20037;-77
2023/04/25 14:16:51;;;;;;;5.32;3.20;;;;;;;;;;5020318;28;20037;-74
2023/04/25 14:19:18;;;;;;;6.65;3.47;;;;;;;;;;5019193;28;20029;-74
2023/04/25 14:21:44;;;;;;;12.05;5.78;;;;;;;;;;5020076;28;20132;-74
2023/04/25 14:24:13;;;;;;;7.65;4.05;;;;;;;;;;5021753;28;20017;-73
2023/04/25 14:26:40;;;;;;;8.23;3.53;;;;;;;;;;5012549;28;20306;-74
2023/04/25 14:29:07;;;;;;;6.63;3.22;;;;;;;;;;5018973;28;20026;-74
2023/04/25 14:31:33;;;;;;;7.45;3.15;;;;;;;;;;5019124;28;20449;-73
2023/04/25 14:33:59;;;;;;;7.22;4.18;;;;;;;;;;5022369;28;20038;-73
2023/04/25 14:36:26;;;;;;;8.27;5.15;;;;;;;;;;5020832;28;20060;-74
2023/04/25 14:38:52;;;;;;;5.75;3.53;;;;;;;;;;5014295;28;20080;-73
2023/04/25 14:41:18;;;;;;;6.13;3.03;;;;;;;;;;5022838;28;20029;-74
2023/04/25 14:43:45;;;;;;;7.47;2.80;;;;;;;;;;5021394;28;20109;-73